createdAt,value
2023-05-18T00:00:15.855Z,4.00
2023-05-18T00:01:15.845Z,4.00
2023-05-18T00:02:15.878Z,4.00
2023-05-18T00:03:15.969Z,4.00
2023-05-18T00:04:15.913Z,4.00
2023-05-18T00:05:15.802Z,4.00
2023-05-18T00:06:15.794Z,4.00
2023-05-18T00:07:15.800Z,4.00
2023-05-18T00:08:15.775Z,4.00
2023-05-18T00:09:15.752Z,4.00
2023-05-18T00:10:15.864Z,4.00
2023-05-18T00:11:15.730Z,4.00
2023-05-18T00:12:15.739Z,4.00
2023-05-18T00:13:15.710Z,4.00
2023-05-18T00:14:15.740Z,4.00
2023-05-18T00:15:15.715Z,4.00
2023-05-18T00:16:15.772Z,4.00
2023-05-18T00:17:15.675Z,4.00
2023-05-18T00:18:15.665Z,4.00
2023-05-18T00:19:15.686Z,4.00
2023-05-18T00:20:15.704Z,4.00
2023-05-18T00:21:15.629Z,4.00
2023-05-18T00:22:15.632Z,4.00
2023-05-18T00:23:15.640Z,4.00
2023-05-18T00:24:15.613Z,4.00
2023-05-18T00:25:15.620Z,4.00
2023-05-18T00:26:15.604Z,4.00
2023-05-18T00:27:15.586Z,4.00
2023-05-18T00:28:15.558Z,4.00
2023-05-18T00:29:15.533Z,4.00
2023-05-18T00:30:15.554Z,4.00
2023-05-18T00:31:15.536Z,4.00
2023-05-18T00:32:15.516Z,4.00
2023-05-18T00:33:15.510Z,4.00
2023-05-18T00:34:15.490Z,4.00
2023-05-18T00:35:15.523Z,4.00
2023-05-18T00:36:15.473Z,4.00
2023-05-18T00:37:15.463Z,4.00
2023-05-18T00:38:15.454Z,4.00
2023-05-18T00:39:15.460Z,4.00
2023-05-18T00:40:15.460Z,4.00
2023-05-18T00:41:15.425Z,4.00
2023-05-18T00:42:15.406Z,4.00
2023-05-18T00:43:15.393Z,4.00
2023-05-18T00:44:15.437Z,4.00
2023-05-18T00:45:15.369Z,4.00
2023-05-18T00:46:15.450Z,4.00
2023-05-18T00:47:15.381Z,4.00
2023-05-18T00:48:15.455Z,4.00
2023-05-18T00:49:15.360Z,4.00
2023-05-18T00:50:15.340Z,4.00
2023-05-18T00:51:15.338Z,4.00
2023-05-18T00:52:15.331Z,4.00
2023-05-18T00:53:15.285Z,4.00
2023-05-18T00:54:15.284Z,4.00
2023-05-18T00:55:15.323Z,4.00
2023-05-18T00:56:15.262Z,4.00
2023-05-18T00:57:15.270Z,4.00
2023-05-18T00:58:15.237Z,4.00
2023-05-18T00:59:15.218Z,4.00
2023-05-18T01:00:15.216Z,4.00
2023-05-18T01:01:15.230Z,4.00
2023-05-18T01:02:15.249Z,4.00
2023-05-18T01:03:15.288Z,4.00
2023-05-18T01:04:15.178Z,4.00
2023-05-18T01:05:15.174Z,4.00
2023-05-18T01:06:15.197Z,4.00
2023-05-18T01:07:15.144Z,4.00
2023-05-18T01:08:15.174Z,4.00
2023-05-18T01:09:15.110Z,4.00
2023-05-18T01:10:15.106Z,4.00
2023-05-18T01:11:15.171Z,4.00
2023-05-18T01:12:15.108Z,4.00
2023-05-18T01:13:15.077Z,4.00
2023-05-18T01:14:15.063Z,4.00
2023-05-18T01:15:15.058Z,4.00
2023-05-18T01:16:15.074Z,4.00
2023-05-18T01:17:15.120Z,4.00
2023-05-18T01:18:15.064Z,4.00
2023-05-18T01:19:15.112Z,4.00
2023-05-18T01:20:14.996Z,4.00
2023-05-18T01:21:14.993Z,4.00
2023-05-18T01:22:15.002Z,4.00
2023-05-18T01:23:14.965Z,4.00
2023-05-18T01:24:14.955Z,4.00
2023-05-18T01:25:14.958Z,4.00
2023-05-18T01:26:14.963Z,4.00
2023-05-18T01:27:14.952Z,4.00
2023-05-18T01:28:14.909Z,4.00
2023-05-18T01:29:14.900Z,4.00
2023-05-18T01:30:14.911Z,4.00
2023-05-18T01:31:14.941Z,4.00
2023-05-18T01:32:14.870Z,4.00
2023-05-18T01:33:14.879Z,4.00
2023-05-18T01:34:14.888Z,4.00
2023-05-18T01:35:14.835Z,4.00
2023-05-18T01:36:14.818Z,4.00
2023-05-18T01:37:14.830Z,4.00
2023-05-18T01:38:14.805Z,4.00
2023-05-18T01:39:14.834Z,4.00
2023-05-18T01:40:14.778Z,4.00
2023-05-18T01:41:14.776Z,4.00
2023-05-18T01:42:14.766Z,4.00
2023-05-18T01:43:14.771Z,4.00
2023-05-18T01:44:14.749Z,4.00
2023-05-18T01:45:14.747Z,4.00
2023-05-18T01:46:14.768Z,4.00
2023-05-18T01:47:14.738Z,4.00
2023-05-18T01:48:14.718Z,4.00
2023-05-18T01:49:14.698Z,4.00
2023-05-18T01:50:14.677Z,4.00
2023-05-18T01:51:14.672Z,4.00
2023-05-18T01:52:14.666Z,4.00
2023-05-18T01:53:14.657Z,4.00
2023-05-18T01:54:14.649Z,4.00
2023-05-18T01:55:14.625Z,4.00
2023-05-18T01:56:14.604Z,4.00
2023-05-18T01:57:14.615Z,4.00
2023-05-18T01:58:14.585Z,4.00
2023-05-18T01:59:14.588Z,4.00
2023-05-18T02:00:14.569Z,4.00
2023-05-18T02:01:14.598Z,4.00
2023-05-18T02:02:14.740Z,4.00
2023-05-18T02:03:14.611Z,4.00
2023-05-18T02:04:14.610Z,4.00
2023-05-18T02:05:14.527Z,4.00
2023-05-18T02:06:14.499Z,4.00
2023-05-18T02:07:14.550Z,4.00
2023-05-18T02:08:14.472Z,4.00
2023-05-18T02:09:14.461Z,4.00
2023-05-18T02:10:14.457Z,4.00
2023-05-18T02:11:14.456Z,4.00
2023-05-18T02:12:14.460Z,4.00
2023-05-18T02:13:14.414Z,4.00
2023-05-18T02:14:14.400Z,4.00
2023-05-18T02:15:14.442Z,4.00
2023-05-18T02:16:14.422Z,8.00
2023-05-18T02:17:14.398Z,8.00
2023-05-18T02:18:14.364Z,8.00
2023-05-18T02:19:14.363Z,8.00
2023-05-18T02:20:14.354Z,8.00
2023-05-18T02:21:14.343Z,8.00
2023-05-18T02:22:14.338Z,8.00
2023-05-18T02:23:14.314Z,8.00
2023-05-18T02:24:14.294Z,8.00
2023-05-18T02:25:14.303Z,8.00
2023-05-18T02:26:14.283Z,8.00
2023-05-18T02:27:14.285Z,8.00
2023-05-18T02:28:14.247Z,8.00
2023-05-18T02:29:14.240Z,8.00
2023-05-18T02:30:15.914Z,8.00
2023-05-18T02:31:14.247Z,8.00
2023-05-18T02:32:14.426Z,4.00
2023-05-18T02:33:14.216Z,4.00
2023-05-18T02:34:14.182Z,8.00
2023-05-18T02:35:14.177Z,8.00
2023-05-18T02:36:14.162Z,8.00
2023-05-18T02:37:14.196Z,8.00
2023-05-18T02:38:14.141Z,8.00
2023-05-18T02:39:14.132Z,8.00
2023-05-18T02:40:14.120Z,8.00
2023-05-18T02:41:14.133Z,12.00
2023-05-18T02:42:14.130Z,8.00
2023-05-18T02:43:14.114Z,12.00
2023-05-18T02:44:14.087Z,8.00
2023-05-18T02:45:14.104Z,12.00
2023-05-18T02:46:14.150Z,12.00
2023-05-18T02:47:14.081Z,16.00
2023-05-18T02:48:14.071Z,16.00
2023-05-18T02:49:14.070Z,16.00
2023-05-18T02:50:14.009Z,16.00
2023-05-18T02:51:14.010Z,16.00
2023-05-18T02:52:13.987Z,20.00
2023-05-18T02:53:14.007Z,24.00
2023-05-18T02:54:13.964Z,28.00
2023-05-18T02:55:13.958Z,24.00
2023-05-18T02:56:13.959Z,28.00
2023-05-18T02:57:13.984Z,32.00
2023-05-18T02:58:13.974Z,32.00
2023-05-18T02:59:13.922Z,36.00
2023-05-18T03:00:13.905Z,40.00
2023-05-18T03:01:13.941Z,40.00
2023-05-18T03:02:14.039Z,48.00
2023-05-18T03:03:14.020Z,52.00
2023-05-18T03:04:13.865Z,52.00
2023-05-18T03:05:13.865Z,60.00
2023-05-18T03:06:13.840Z,64.00
2023-05-18T03:07:13.849Z,72.00
2023-05-18T03:08:13.837Z,76.00
2023-05-18T03:09:13.821Z,84.00
2023-05-18T03:10:13.800Z,88.00
2023-05-18T03:11:13.790Z,96.00
2023-05-18T03:12:13.774Z,100.00
2023-05-18T03:13:13.779Z,108.00
2023-05-18T03:14:13.779Z,116.00
2023-05-18T03:15:13.748Z,124.00
2023-05-18T03:16:13.778Z,132.00
2023-05-18T03:17:13.740Z,140.00
2023-05-18T03:18:13.729Z,148.00
2023-05-18T03:19:13.839Z,156.00
2023-05-18T03:20:13.705Z,164.00
2023-05-18T03:21:13.809Z,172.00
2023-05-18T03:22:13.666Z,184.00
2023-05-18T03:23:13.699Z,196.00
2023-05-18T03:24:13.672Z,200.00
2023-05-18T03:25:13.646Z,212.00
2023-05-18T03:26:13.639Z,228.00
2023-05-18T03:27:13.648Z,240.00
2023-05-18T03:28:13.625Z,252.00
2023-05-18T03:29:13.814Z,264.00
2023-05-18T03:30:13.594Z,280.00
2023-05-18T03:31:13.583Z,292.00
2023-05-18T03:32:13.568Z,312.00
2023-05-18T03:33:13.612Z,328.00
2023-05-18T03:34:13.577Z,348.00
2023-05-18T03:35:13.563Z,360.00
2023-05-18T03:36:13.521Z,380.00
2023-05-18T03:37:13.502Z,396.00
2023-05-18T03:38:13.501Z,412.00
2023-05-18T03:39:13.518Z,428.00
2023-05-18T03:40:13.544Z,440.00
2023-05-18T03:41:13.474Z,452.00
2023-05-18T03:42:13.457Z,468.00
2023-05-18T03:43:13.462Z,476.00
2023-05-18T03:44:13.471Z,492.00
2023-05-18T03:45:13.424Z,496.00
2023-05-18T03:46:13.504Z,504.00
2023-05-18T03:47:13.395Z,516.00
2023-05-18T03:48:13.448Z,524.00
2023-05-18T03:49:13.416Z,540.00
2023-05-18T03:50:13.374Z,548.00
2023-05-18T03:51:13.375Z,560.00
2023-05-18T03:52:13.406Z,568.00
2023-05-18T03:53:13.382Z,576.00
2023-05-18T03:54:13.335Z,584.00
2023-05-18T03:55:13.345Z,596.00
2023-05-18T03:56:13.345Z,604.00
2023-05-18T03:57:13.318Z,612.00
2023-05-18T03:58:13.321Z,620.00
2023-05-18T03:59:13.265Z,628.00
2023-05-18T04:00:13.266Z,636.00
2023-05-18T04:01:13.265Z,640.00
2023-05-18T04:02:13.285Z,652.00
2023-05-18T04:03:13.353Z,656.00
2023-05-18T04:04:13.232Z,664.00
2023-05-18T04:05:13.206Z,672.00
2023-05-18T04:06:13.191Z,680.00
2023-05-18T04:07:14.844Z,688.00
2023-05-18T04:08:13.200Z,700.00
2023-05-18T04:09:13.159Z,704.00
2023-05-18T04:10:13.155Z,716.00
2023-05-18T04:11:13.156Z,720.00
2023-05-18T04:12:13.130Z,728.00
2023-05-18T04:13:13.182Z,736.00
2023-05-18T04:14:13.141Z,744.00
2023-05-18T04:15:13.109Z,748.00
2023-05-18T04:16:13.130Z,756.00
2023-05-18T04:17:13.080Z,760.00
2023-05-18T04:18:13.095Z,772.00
2023-05-18T04:19:13.116Z,780.00
2023-05-18T04:20:13.172Z,788.00
2023-05-18T04:21:13.034Z,800.00
2023-05-18T04:22:13.020Z,808.00
2023-05-18T04:23:13.076Z,820.00
2023-05-18T04:24:12.999Z,832.00
2023-05-18T04:25:12.993Z,840.00
2023-05-18T04:26:12.984Z,852.00
2023-05-18T04:27:12.976Z,864.00
2023-05-18T04:28:12.955Z,872.00
2023-05-18T04:29:12.975Z,884.00
2023-05-18T04:30:12.937Z,892.00
2023-05-18T04:31:12.925Z,904.00
2023-05-18T04:32:12.963Z,916.00
2023-05-18T04:33:12.959Z,928.00
2023-05-18T04:34:12.918Z,936.00
2023-05-18T04:35:12.893Z,948.00
2023-05-18T04:36:12.871Z,956.00
2023-05-18T04:37:12.874Z,964.00
2023-05-18T04:38:12.860Z,972.00
2023-05-18T04:39:12.895Z,984.00
2023-05-18T04:40:12.847Z,996.00
2023-05-18T04:41:12.819Z,1016.00
2023-05-18T04:42:12.809Z,1040.00
2023-05-18T04:43:12.831Z,1072.00
2023-05-18T04:44:12.791Z,1160.00
2023-05-18T04:45:12.783Z,1100.00
2023-05-18T04:46:12.817Z,1092.00
2023-05-18T04:47:12.756Z,1084.00
2023-05-18T04:48:12.824Z,1092.00
2023-05-18T04:49:12.765Z,1104.00
2023-05-18T04:50:12.755Z,1116.00
2023-05-18T04:51:12.711Z,1128.00
2023-05-18T04:52:12.727Z,1140.00
2023-05-18T04:53:12.706Z,1376.00
2023-05-18T04:54:12.678Z,1352.00
2023-05-18T04:55:12.774Z,1172.00
2023-05-18T04:56:12.658Z,1176.00
2023-05-18T04:57:12.649Z,1192.00
2023-05-18T04:58:12.633Z,1204.00
2023-05-18T04:59:12.644Z,1216.00
2023-05-18T05:00:12.649Z,1228.00
2023-05-18T05:01:12.702Z,1240.00
2023-05-18T05:02:12.602Z,1252.00
2023-05-18T05:03:12.670Z,1260.00
2023-05-18T05:04:12.569Z,1272.00
2023-05-18T05:05:12.587Z,1380.00
2023-05-18T05:06:12.574Z,1460.00
2023-05-18T05:07:12.545Z,1624.00
2023-05-18T05:08:12.534Z,1500.00
2023-05-18T05:09:12.539Z,1320.00
2023-05-18T05:10:12.502Z,1336.00
2023-05-18T05:11:12.565Z,1356.00
2023-05-18T05:12:12.480Z,1564.00
2023-05-18T05:13:12.480Z,1784.00
2023-05-18T05:14:12.456Z,1436.00
2023-05-18T05:15:12.477Z,1412.00
2023-05-18T05:16:12.494Z,1424.00
2023-05-18T05:17:12.427Z,1420.00
2023-05-18T05:18:12.485Z,1424.00
2023-05-18T05:19:12.417Z,1436.00
2023-05-18T05:20:12.386Z,1448.00
2023-05-18T05:21:12.418Z,1592.00
2023-05-18T05:22:12.378Z,1564.00
2023-05-18T05:23:12.476Z,1480.00
2023-05-18T05:24:12.353Z,1492.00
2023-05-18T05:25:12.340Z,1500.00
2023-05-18T05:26:12.332Z,1516.00
2023-05-18T05:27:12.374Z,1520.00
2023-05-18T05:28:12.340Z,1524.00
2023-05-18T05:29:12.289Z,1536.00
2023-05-18T05:30:12.304Z,1556.00
2023-05-18T05:31:12.356Z,1568.00
2023-05-18T05:32:12.250Z,1584.00
2023-05-18T05:33:12.351Z,1596.00
2023-05-18T05:34:12.232Z,1604.00
2023-05-18T05:35:12.250Z,1620.00
2023-05-18T05:36:12.213Z,1624.00
2023-05-18T05:37:12.257Z,1636.00
2023-05-18T05:38:12.212Z,1644.00
2023-05-18T05:39:12.219Z,1660.00
2023-05-18T05:40:12.165Z,1676.00
2023-05-18T05:41:12.186Z,1688.00
2023-05-18T05:42:12.150Z,1704.00
2023-05-18T05:43:12.331Z,1716.00
2023-05-18T05:44:12.147Z,1728.00
2023-05-18T05:45:12.184Z,1744.00
2023-05-18T05:46:12.106Z,1760.00
2023-05-18T05:47:12.141Z,1772.00
2023-05-18T05:48:13.904Z,1792.00
2023-05-18T05:49:12.080Z,1828.00
2023-05-18T05:50:12.093Z,1836.00
2023-05-18T05:51:12.051Z,1868.00
2023-05-18T05:52:12.052Z,1900.00
2023-05-18T05:53:12.051Z,1920.00
2023-05-18T05:54:12.017Z,1928.00
2023-05-18T05:55:12.069Z,1952.00
2023-05-18T05:56:12.020Z,1984.00
2023-05-18T05:57:11.988Z,2012.00
2023-05-18T05:58:11.986Z,2044.00
2023-05-18T05:59:12.004Z,2108.00
2023-05-18T06:00:11.961Z,2076.00
2023-05-18T06:01:11.988Z,2112.00
2023-05-18T06:02:11.969Z,2156.00
2023-05-18T06:03:11.967Z,2168.00
2023-05-18T06:04:11.958Z,2196.00
2023-05-18T06:05:11.903Z,2232.00
2023-05-18T06:06:11.914Z,2264.00
2023-05-18T06:07:11.886Z,2312.00
2023-05-18T06:08:11.892Z,2336.00
2023-05-18T06:09:11.855Z,2356.00
2023-05-18T06:10:11.848Z,2572.00
2023-05-18T06:11:11.866Z,2464.00
2023-05-18T06:12:11.823Z,2504.00
2023-05-18T06:13:11.813Z,3832.00
2023-05-18T06:14:11.797Z,3668.00
2023-05-18T06:15:11.811Z,3448.00
2023-05-18T06:16:11.929Z,4312.00
2023-05-18T06:17:11.801Z,8884.00
2023-05-18T06:18:13.463Z,10588.00
2023-05-18T06:19:11.797Z,7192.00
2023-05-18T06:20:11.735Z,3200.00
2023-05-18T06:21:11.753Z,3544.00
2023-05-18T06:22:11.712Z,3992.00
2023-05-18T06:23:11.743Z,3848.00
2023-05-18T06:24:11.697Z,4868.00
2023-05-18T06:25:11.680Z,3840.00
2023-05-18T06:26:11.700Z,3584.00
2023-05-18T06:27:11.702Z,4100.00
2023-05-18T06:28:11.684Z,4056.00
2023-05-18T06:29:11.641Z,3728.00
2023-05-18T06:30:11.649Z,5348.00
2023-05-18T06:31:11.662Z,8424.00
2023-05-18T06:32:11.662Z,9784.00
2023-05-18T06:33:11.623Z,11152.00
2023-05-18T06:34:11.590Z,15232.00
2023-05-18T06:35:11.575Z,10756.00
2023-05-18T06:36:11.573Z,3908.00
2023-05-18T06:37:11.618Z,8872.00
2023-05-18T06:38:11.598Z,12336.00
2023-05-18T06:39:11.572Z,6968.00
2023-05-18T06:40:11.533Z,3904.00
2023-05-18T06:41:11.572Z,4372.00
2023-05-18T06:42:11.507Z,3816.00
2023-05-18T06:43:11.490Z,4256.00
2023-05-18T06:44:11.499Z,3872.00
2023-05-18T06:45:11.518Z,3856.00
2023-05-18T06:46:11.538Z,3844.00
2023-05-18T06:47:11.489Z,3888.00
2023-05-18T06:48:11.496Z,3940.00
2023-05-18T06:49:11.450Z,3976.00
2023-05-18T06:50:11.410Z,4032.00
2023-05-18T06:51:11.406Z,4080.00
2023-05-18T06:52:11.410Z,4120.00
2023-05-18T06:53:11.385Z,4052.00
2023-05-18T06:54:11.397Z,3992.00
2023-05-18T06:55:11.358Z,3976.00
2023-05-18T06:56:11.357Z,4288.00
2023-05-18T06:57:11.341Z,4292.00
2023-05-18T06:58:11.331Z,4320.00
2023-05-18T06:59:11.373Z,4364.00
2023-05-18T07:00:11.307Z,4372.00
2023-05-18T07:01:11.310Z,4388.00
2023-05-18T07:02:11.308Z,4420.00
2023-05-18T07:03:11.403Z,4444.00
2023-05-18T07:04:11.353Z,4488.00
2023-05-18T07:05:11.250Z,4520.00
2023-05-18T07:06:11.249Z,4544.00
2023-05-18T07:07:11.247Z,4568.00
2023-05-18T07:08:11.274Z,4596.00
2023-05-18T07:09:11.218Z,4628.00
2023-05-18T07:10:11.209Z,4648.00
2023-05-18T07:11:11.183Z,3700.00
2023-05-18T07:12:11.206Z,5052.00
2023-05-18T07:13:11.165Z,5008.00
2023-05-18T07:14:11.154Z,4988.00
2023-05-18T07:15:11.155Z,4908.00
2023-05-18T07:16:11.229Z,4912.00
2023-05-18T07:17:11.123Z,5312.00
2023-05-18T07:18:11.186Z,6572.00
2023-05-18T07:19:11.191Z,5620.00
2023-05-18T07:20:11.097Z,5484.00
2023-05-18T07:21:11.111Z,6676.00
2023-05-18T07:22:11.068Z,5992.00
2023-05-18T07:23:11.054Z,6516.00
2023-05-18T07:24:11.049Z,5172.00
2023-05-18T07:25:11.030Z,6848.00
2023-05-18T07:26:11.017Z,7144.00
2023-05-18T07:27:11.029Z,8184.00
2023-05-18T07:28:11.012Z,8248.00
2023-05-18T07:29:10.986Z,7532.00
2023-05-18T07:30:10.996Z,4704.00
2023-05-18T07:31:11.000Z,4040.00
2023-05-18T07:32:10.983Z,3980.00
2023-05-18T07:33:11.013Z,6020.00
2023-05-18T07:34:10.960Z,4232.00
2023-05-18T07:35:10.959Z,7308.00
2023-05-18T07:36:10.918Z,12340.00
2023-05-18T07:37:10.905Z,14256.00
2023-05-18T07:38:10.900Z,25824.00
2023-05-18T07:39:10.901Z,56096.00
2023-05-18T07:40:10.877Z,43296.00
2023-05-18T07:41:10.863Z,31616.00
2023-05-18T07:42:10.870Z,35520.00
2023-05-18T07:43:10.841Z,18400.00
2023-05-18T07:44:10.855Z,15552.00
2023-05-18T07:45:10.819Z,11776.00
2023-05-18T07:46:10.828Z,26208.00
2023-05-18T07:47:11.071Z,21184.00
2023-05-18T07:48:10.858Z,4768.00
2023-05-18T07:49:10.799Z,3880.00
2023-05-18T07:50:10.761Z,3604.00
2023-05-18T07:51:10.780Z,3856.00
2023-05-18T07:52:10.745Z,4496.00
2023-05-18T07:53:10.725Z,5220.00
2023-05-18T07:54:10.719Z,6228.00
2023-05-18T07:55:10.733Z,15084.00
2023-05-18T07:56:10.701Z,73920.00
2023-05-18T07:57:10.692Z,41056.00
2023-05-18T07:58:10.677Z,36288.00
2023-05-18T07:59:10.664Z,4060.00
2023-05-18T08:00:10.655Z,3904.00
2023-05-18T08:01:10.676Z,5168.00
2023-05-18T08:02:10.708Z,4676.00
2023-05-18T08:03:10.682Z,4652.00
2023-05-18T08:04:10.702Z,7340.00
2023-05-18T08:05:10.622Z,39392.00
2023-05-18T08:06:10.604Z,28416.00
2023-05-18T08:07:10.639Z,23712.00
2023-05-18T08:08:10.569Z,24288.00
2023-05-18T08:09:10.552Z,10284.00
2023-05-18T08:10:10.552Z,10988.00
2023-05-18T08:11:10.532Z,32288.00
2023-05-18T08:12:10.557Z,55456.00
2023-05-18T08:13:10.516Z,66240.00
2023-05-18T08:14:10.503Z,70560.00
2023-05-18T08:15:10.507Z,77376.00
2023-05-18T08:16:12.324Z,76512.00
2023-05-18T08:17:10.606Z,45120.00
2023-05-18T08:18:10.504Z,22304.00
2023-05-18T08:19:10.573Z,14944.00
2023-05-18T08:20:10.461Z,19072.00
2023-05-18T08:21:10.457Z,22432.00
2023-05-18T08:22:10.415Z,32672.00
2023-05-18T08:23:10.433Z,32192.00
2023-05-18T08:24:10.418Z,21344.00
2023-05-18T08:25:10.379Z,15616.00
2023-05-18T08:26:12.445Z,13940.00
2023-05-18T08:27:10.385Z,14112.00
2023-05-18T08:28:10.374Z,15168.00
2023-05-18T08:29:10.423Z,12564.00
2023-05-18T08:30:10.343Z,10164.00
2023-05-18T08:31:10.315Z,11712.00
2023-05-18T08:32:10.365Z,12148.00
2023-05-18T08:33:10.349Z,12812.00
2023-05-18T08:34:10.289Z,11520.00
2023-05-18T08:35:10.282Z,9816.00
2023-05-18T08:36:10.272Z,5908.00
2023-05-18T08:37:10.248Z,5688.00
2023-05-18T08:38:10.263Z,5884.00
2023-05-18T08:39:10.267Z,6448.00
2023-05-18T08:40:10.228Z,7896.00
2023-05-18T08:41:10.244Z,8536.00
2023-05-18T08:42:10.205Z,9372.00
2023-05-18T08:43:10.212Z,9492.00
2023-05-18T08:44:10.185Z,10652.00
2023-05-18T08:45:10.192Z,13888.00
2023-05-18T08:46:10.158Z,12656.00
2023-05-18T08:47:10.151Z,11476.00
2023-05-18T08:48:10.283Z,12348.00
2023-05-18T08:49:10.190Z,11740.00
2023-05-18T08:50:10.128Z,10580.00
2023-05-18T08:51:10.126Z,10228.00
2023-05-18T08:52:10.099Z,9392.00
2023-05-18T08:53:10.073Z,8972.00
2023-05-18T08:54:10.074Z,7128.00
2023-05-18T08:55:12.170Z,5848.00
2023-05-18T08:56:10.074Z,5960.00
2023-05-18T08:57:10.069Z,5876.00
2023-05-18T08:58:10.043Z,5380.00
2023-05-18T08:59:10.015Z,5284.00
2023-05-18T09:00:10.015Z,5540.00
2023-05-18T09:01:10.082Z,5084.00
2023-05-18T09:02:10.059Z,5052.00
2023-05-18T09:03:10.041Z,5120.00
2023-05-18T09:04:09.970Z,5332.00
2023-05-18T09:05:10.054Z,5548.00
2023-05-18T09:06:09.958Z,5644.00
2023-05-18T09:07:09.925Z,5656.00
2023-05-18T09:08:09.952Z,5404.00
2023-05-18T09:09:09.932Z,5356.00
2023-05-18T09:10:09.915Z,5416.00
2023-05-18T09:11:09.994Z,5724.00
2023-05-18T09:12:09.890Z,5952.00
2023-05-18T09:13:09.894Z,6268.00
2023-05-18T09:14:09.852Z,6776.00
2023-05-18T09:15:09.851Z,7340.00
2023-05-18T09:16:09.893Z,7904.00
2023-05-18T09:17:09.815Z,8376.00
2023-05-18T09:18:09.853Z,8900.00
2023-05-18T09:19:09.841Z,11672.00
2023-05-18T09:20:09.796Z,32384.00
2023-05-18T09:21:09.800Z,28064.00
2023-05-18T09:22:09.761Z,36256.00
2023-05-18T09:23:09.768Z,36320.00
2023-05-18T09:24:09.745Z,66688.00
2023-05-18T09:25:09.737Z,57376.00
2023-05-18T09:26:09.747Z,25728.00
2023-05-18T09:27:09.724Z,39616.00
2023-05-18T09:28:09.703Z,70528.00
2023-05-18T09:29:09.712Z,93920.00
2023-05-18T09:30:09.684Z,88064.00
2023-05-18T09:31:09.703Z,20640.00
2023-05-18T09:32:09.742Z,74144.00
2023-05-18T09:33:09.728Z,86080.00
2023-05-18T09:34:09.717Z,86592.00
2023-05-18T09:35:09.638Z,70208.00
2023-05-18T09:36:09.620Z,14752.00
2023-05-18T09:37:09.603Z,12712.00
2023-05-18T09:38:09.597Z,13096.00
2023-05-18T09:39:09.609Z,11252.00
2023-05-18T09:40:09.580Z,10664.00
2023-05-18T09:41:09.592Z,14944.00
2023-05-18T09:42:09.584Z,49792.00
2023-05-18T09:43:09.569Z,65216.00
2023-05-18T09:44:09.530Z,79296.00
2023-05-18T09:45:09.514Z,9448.00
2023-05-18T09:46:09.535Z,8556.00
2023-05-18T09:47:09.690Z,27424.00
2023-05-18T09:48:09.519Z,9084.00
2023-05-18T09:49:09.493Z,12240.00
2023-05-18T09:50:09.466Z,9696.00
2023-05-18T09:51:09.476Z,9520.00
2023-05-18T09:52:09.445Z,9268.00
2023-05-18T09:53:09.430Z,9012.00
2023-05-18T09:54:09.446Z,40512.00
2023-05-18T09:55:09.405Z,9040.00
2023-05-18T09:56:09.407Z,9616.00
2023-05-18T09:57:11.211Z,31776.00
2023-05-18T09:58:09.377Z,88832.00
2023-05-18T09:59:09.458Z,41440.00
2023-05-18T10:00:09.362Z,24704.00
2023-05-18T10:01:09.410Z,16640.00
2023-05-18T10:02:09.332Z,19072.00
2023-05-18T10:03:09.369Z,17408.00
2023-05-18T10:04:09.371Z,12616.00
2023-05-18T10:05:09.308Z,12100.00
2023-05-18T10:06:09.299Z,9808.00
2023-05-18T10:07:09.283Z,9548.00
2023-05-18T10:08:09.320Z,10212.00
2023-05-18T10:09:09.354Z,9940.00
2023-05-18T10:10:09.553Z,8952.00
2023-05-18T10:11:09.243Z,8648.00
2023-05-18T10:12:09.231Z,8312.00
2023-05-18T10:13:09.223Z,8088.00
2023-05-18T10:14:09.210Z,7428.00
2023-05-18T10:15:09.245Z,7400.00
2023-05-18T10:16:09.184Z,7272.00
2023-05-18T10:17:15.639Z,8304.00
2023-05-18T10:18:10.203Z,9376.00
2023-05-18T10:19:09.184Z,10168.00
2023-05-18T10:20:09.169Z,10348.00
2023-05-18T10:21:09.125Z,12164.00
2023-05-18T10:22:09.168Z,9856.00
2023-05-18T10:23:09.110Z,7972.00
2023-05-18T10:24:09.111Z,6780.00
2023-05-18T10:25:09.104Z,6888.00
2023-05-18T10:26:09.083Z,7752.00
2023-05-18T10:27:09.064Z,8456.00
2023-05-18T10:28:09.084Z,8784.00
2023-05-18T10:29:09.050Z,9384.00
2023-05-18T10:30:09.064Z,9636.00
2023-05-18T10:31:09.120Z,10408.00
2023-05-18T10:32:09.023Z,10384.00
2023-05-18T10:33:17.320Z,9652.00
2023-05-18T10:34:09.997Z,9384.00
2023-05-18T10:35:09.017Z,9584.00
2023-05-18T10:36:08.991Z,10620.00
2023-05-18T10:37:11.632Z,11372.00
2023-05-18T10:38:08.949Z,11560.00
2023-05-18T10:39:08.938Z,11344.00
2023-05-18T10:40:08.960Z,11604.00
2023-05-18T10:41:08.947Z,10000.00
2023-05-18T10:42:08.928Z,8992.00
2023-05-18T10:43:08.897Z,7824.00
2023-05-18T10:44:08.896Z,7108.00
2023-05-18T10:45:08.914Z,6912.00
2023-05-18T10:46:09.064Z,6880.00
2023-05-18T10:47:09.069Z,7012.00
2023-05-18T10:48:08.914Z,7584.00
2023-05-18T10:49:08.835Z,7480.00
2023-05-18T10:50:08.846Z,6892.00
2023-05-18T10:51:08.861Z,6428.00
2023-05-18T10:52:08.797Z,6308.00
2023-05-18T10:53:08.787Z,8768.00
2023-05-18T10:54:08.785Z,21792.00
2023-05-18T10:55:08.815Z,5260.00
2023-05-18T10:56:08.776Z,31424.00
2023-05-18T10:57:08.772Z,20768.00
2023-05-18T10:58:08.728Z,9724.00
2023-05-18T10:59:08.747Z,8260.00
2023-05-18T11:00:08.708Z,11000.00
2023-05-18T11:01:08.703Z,10828.00
2023-05-18T11:02:08.800Z,8996.00
2023-05-18T11:03:08.746Z,11852.00
2023-05-18T11:04:08.673Z,9724.00
2023-05-18T11:05:08.734Z,11008.00
2023-05-18T11:06:08.644Z,15104.00
2023-05-18T11:07:08.645Z,56512.00
2023-05-18T11:08:08.620Z,5360.00
2023-05-18T11:09:08.613Z,7636.00
2023-05-18T11:10:08.629Z,6856.00
2023-05-18T11:11:08.614Z,7880.00
2023-05-18T11:12:08.582Z,9856.00
2023-05-18T11:13:08.577Z,7840.00
2023-05-18T11:14:08.560Z,6984.00
2023-05-18T11:15:08.548Z,6508.00
2023-05-18T11:16:08.677Z,5840.00
2023-05-18T11:17:08.533Z,50016.00
2023-05-18T11:18:08.534Z,28576.00
2023-05-18T11:19:08.685Z,53120.00
2023-05-18T11:20:08.508Z,17216.00
2023-05-18T11:21:08.503Z,25216.00
2023-05-18T11:22:08.471Z,16928.00
2023-05-18T11:23:08.472Z,9428.00
2023-05-18T11:24:08.446Z,7084.00
2023-05-18T11:25:08.450Z,21408.00
2023-05-18T11:26:08.454Z,34976.00
2023-05-18T11:27:08.439Z,46656.00
2023-05-18T11:28:08.414Z,9668.00
2023-05-18T11:29:08.424Z,11148.00
2023-05-18T11:31:09.408Z,12680.00
2023-05-18T11:32:08.494Z,11328.00
2023-05-18T11:33:08.472Z,9144.00
2023-05-18T11:34:08.340Z,7232.00
2023-05-18T11:35:08.474Z,6596.00
2023-05-18T11:36:08.357Z,6468.00
2023-05-18T11:37:08.316Z,6308.00
2023-05-18T11:38:08.306Z,6008.00
2023-05-18T11:39:08.297Z,5648.00
2023-05-18T11:40:10.925Z,5244.00
2023-05-18T11:41:08.289Z,5116.00
2023-05-18T11:42:08.266Z,5064.00
2023-05-18T11:43:08.241Z,5196.00
2023-05-18T11:44:08.233Z,5388.00
2023-05-18T11:45:08.270Z,5424.00
2023-05-18T11:46:08.210Z,4844.00
2023-05-18T11:47:08.203Z,4760.00
2023-05-18T11:48:08.281Z,5416.00
2023-05-18T11:49:08.409Z,6364.00
2023-05-18T11:50:08.207Z,6748.00
2023-05-18T11:51:08.205Z,7176.00
2023-05-18T11:52:08.150Z,6944.00
2023-05-18T11:53:08.234Z,8500.00
2023-05-18T11:54:08.121Z,21280.00
2023-05-18T11:55:08.143Z,53120.00
2023-05-18T11:56:08.109Z,31040.00
2023-05-18T11:57:08.094Z,17952.00
2023-05-18T11:58:08.093Z,36352.00
2023-05-18T11:59:08.072Z,26240.00
2023-05-18T12:00:08.139Z,6604.00
2023-05-18T12:01:08.051Z,6552.00
2023-05-18T12:02:08.146Z,6520.00
2023-05-18T12:03:08.145Z,7292.00
2023-05-18T12:04:08.106Z,7936.00
2023-05-18T12:05:08.038Z,10220.00
2023-05-18T12:06:08.015Z,14240.00
2023-05-18T12:07:08.083Z,22656.00
2023-05-18T12:08:07.973Z,17600.00
2023-05-18T12:09:07.960Z,12148.00
2023-05-18T12:10:07.965Z,13112.00
2023-05-18T12:11:07.978Z,80288.00
2023-05-18T12:12:07.949Z,95648.00
2023-05-18T12:13:07.966Z,97376.00
2023-05-18T12:14:07.960Z,12308.00
2023-05-18T12:15:07.931Z,19200.00
2023-05-18T12:16:07.880Z,18976.00
2023-05-18T12:17:07.965Z,12356.00
2023-05-18T12:18:07.934Z,16992.00
2023-05-18T12:19:07.918Z,10424.00
2023-05-18T12:20:07.850Z,8920.00
2023-05-18T12:21:07.861Z,8952.00